Fenwick Island, Delaware
Current Conditions -  °F | °C
As of 1:53 AM on Saturday 25 Oct 2014 (Local Time) from KOXB Reporting Station
Clear Clear  
Wind Chill: 53°   Ceiling: Unl
Heat Index: 53°   Visibility: 10mi
Dew Point: 40°   Wind: 9mph
Humidity: 61%   Direction: 310°NW
Pressure: 29.91"   Gusts: NA
Location:  38.46°N, 75.05°W
Report Text: KOXB 250553Z AUTO 31008KT 10SM CLR 12/04 A2991 RMK AO2 SLP129 T01170044 10139 20117 51004 TSNO
Loading
Personal Weather Stations






























Interactive Weather Map
Tropical Storm Tracking
New forecast layout! Learn more

10-Day Weather Forecast

Advertisements
Track Severe Weather on mobile